createdAt,value
2019-05-02T00:01:18.502Z,80.29
2019-05-02T00:03:45.311Z,80.29
2019-05-02T00:06:11.991Z,80.23
2019-05-02T00:08:39.252Z,80.22
2019-05-02T00:11:06.170Z,80.07
2019-05-02T00:13:32.742Z,79.99
2019-05-02T00:15:59.362Z,79.89
2019-05-02T00:18:31.964Z,80.23
2019-05-02T00:20:57.175Z,80.30
2019-05-02T00:23:28.095Z,81.26
2019-05-02T00:25:54.774Z,81.74
2019-05-02T00:28:21.740Z,82.04
2019-05-02T00:30:48.351Z,82.32
2019-05-02T00:33:14.858Z,82.81
2019-05-02T00:35:46.256Z,83.28
2019-05-02T00:38:10.127Z,83.16
2019-05-02T00:40:36.596Z,83.63
2019-05-02T00:43:03.757Z,83.45
2019-05-02T00:45:30.290Z,83.67
2019-05-02T00:48:03.021Z,83.57
2019-05-02T00:50:34.570Z,83.56
2019-05-02T00:53:01.032Z,83.83
2019-05-02T00:55:28.830Z,83.92
2019-05-02T00:57:56.969Z,83.74
2019-05-02T01:00:23.556Z,83.96
2019-05-02T01:02:54.837Z,83.71
2019-05-02T01:05:21.460Z,83.57
2019-05-02T01:07:47.996Z,83.66
2019-05-02T01:10:17.211Z,83.57
2019-05-02T01:12:44.473Z,83.93
2019-05-02T01:15:12.715Z,83.81
2019-05-02T01:17:39.654Z,83.88
2019-05-02T01:20:07.253Z,83.74
2019-05-02T01:22:34.059Z,83.97
2019-05-02T01:25:00.768Z,84.08
2019-05-02T01:27:36.108Z,83.73
2019-05-02T01:30:16.406Z,83.90
2019-05-02T01:32:50.058Z,83.86
2019-05-02T01:35:27.014Z,83.68
2019-05-02T01:38:16.270Z,83.29
2019-05-02T01:40:53.357Z,83.74
2019-05-02T01:43:28.882Z,83.95
2019-05-02T01:45:55.517Z,83.64
2019-05-02T01:48:22.259Z,84.38
2019-05-02T01:50:49.884Z,84.45
2019-05-02T01:53:16.537Z,84.62
2019-05-02T01:55:43.048Z,84.80
2019-05-02T01:58:09.716Z,85.06
2019-05-02T02:00:36.170Z,85.20
2019-05-02T02:03:04.281Z,85.26
2019-05-02T02:05:32.294Z,85.83
2019-05-02T02:08:00.132Z,86.00
2019-05-02T02:10:26.735Z,85.95
2019-05-02T02:13:03.375Z,85.96
2019-05-02T02:15:25.172Z,85.69
2019-05-02T02:17:51.522Z,85.65
2019-05-02T02:20:21.094Z,85.82
2019-05-02T02:22:58.211Z,86.02
2019-05-02T02:25:32.181Z,86.20
2019-05-02T02:28:01.009Z,86.42
2019-05-02T02:30:27.773Z,86.57
2019-05-02T02:33:00.684Z,86.66
2019-05-02T02:35:22.866Z,86.95
2019-05-02T02:37:53.097Z,87.02
2019-05-02T02:40:17.810Z,86.88
2019-05-02T02:42:44.439Z,86.88
2019-05-02T02:45:28.403Z,86.90
2019-05-02T02:48:00.005Z,86.88
2019-05-02T02:50:23.295Z,87.04
2019-05-02T02:52:49.791Z,87.19
2019-05-02T02:55:22.065Z,87.35
2019-05-02T02:57:44.809Z,87.39
2019-05-02T03:00:11.572Z,87.47
2019-05-02T03:02:47.813Z,87.49
2019-05-02T03:05:08.075Z,87.43
2019-05-02T03:07:34.838Z,87.26
2019-05-02T03:10:05.974Z,87.51
2019-05-02T03:12:49.231Z,87.34
2019-05-02T03:15:21.019Z,87.43
2019-05-02T03:17:46.117Z,87.29
2019-05-02T03:20:12.825Z,87.33
2019-05-02T03:22:41.825Z,87.35
2019-05-02T03:25:08.984Z,87.19
2019-05-02T03:27:37.483Z,87.30
2019-05-02T03:30:04.693Z,87.43
2019-05-02T03:32:35.160Z,87.50
2019-05-02T03:34:59.737Z,87.52
2019-05-02T03:37:26.493Z,87.48
2019-05-02T03:40:00.245Z,87.72
2019-05-02T03:42:22.698Z,87.55
2019-05-02T03:44:55.765Z,87.70
2019-05-02T03:47:18.528Z,88.26
2019-05-02T03:49:48.550Z,88.37
2019-05-02T03:52:15.255Z,88.50
2019-05-02T03:54:50.097Z,88.60
2019-05-02T03:57:10.877Z,88.84
2019-05-02T03:59:39.718Z,88.85
2019-05-02T04:02:05.910Z,88.94
2019-05-02T04:04:32.699Z,88.77
2019-05-02T04:07:01.075Z,88.64
2019-05-02T04:09:38.932Z,88.52
2019-05-02T04:12:03.250Z,88.36
2019-05-02T04:14:37.753Z,88.35
2019-05-02T04:17:01.415Z,88.27
2019-05-02T04:19:34.865Z,88.46
2019-05-02T04:22:07.893Z,88.30
2019-05-02T04:24:32.687Z,88.63
2019-05-02T04:26:59.490Z,88.88
2019-05-02T04:29:31.357Z,89.00
2019-05-02T04:31:54.340Z,89.02
2019-05-02T04:34:20.789Z,89.16
2019-05-02T04:37:00.754Z,89.22
2019-05-02T04:39:22.261Z,88.89
2019-05-02T04:41:48.864Z,88.65
2019-05-02T04:44:15.606Z,88.43
2019-05-02T04:46:42.092Z,88.49
2019-05-02T04:49:09.276Z,88.08
2019-05-02T04:51:38.112Z,87.83
2019-05-02T04:54:04.673Z,87.57
2019-05-02T04:56:31.125Z,87.36
2019-05-02T04:59:01.190Z,86.90
2019-05-02T05:01:33.139Z,86.55
2019-05-02T05:03:58.244Z,86.28
2019-05-02T05:06:22.942Z,86.75
2019-05-02T05:08:49.451Z,86.83
2019-05-02T05:11:20.863Z,86.63
2019-05-02T05:13:44.294Z,86.54
2019-05-02T05:16:15.656Z,86.22
2019-05-02T05:18:43.920Z,85.81
2019-05-02T05:21:10.654Z,85.55
2019-05-02T05:24:14.826Z,85.48
2019-05-02T05:26:44.955Z,85.41
2019-05-02T05:29:13.965Z,84.68
2019-05-02T05:31:39.970Z,84.16
2019-05-02T05:34:08.021Z,83.64
2019-05-02T05:36:34.960Z,84.13
2019-05-02T05:39:08.520Z,83.69
2019-05-02T05:41:33.001Z,82.91
2019-05-02T05:43:59.448Z,82.02
2019-05-02T05:46:27.987Z,81.44
2019-05-02T05:48:55.061Z,80.95
2019-05-02T05:51:21.559Z,80.01
2019-05-02T05:53:52.235Z,79.75
2019-05-02T05:56:18.014Z,79.23
2019-05-02T05:58:50.560Z,79.15
2019-05-02T06:01:13.257Z,78.94
2019-05-02T06:03:44.628Z,78.07
2019-05-02T06:06:10.257Z,78.26
2019-05-02T06:08:37.947Z,78.28
2019-05-02T06:11:04.554Z,78.28
2019-05-02T06:13:31.054Z,77.43
2019-05-02T06:16:02.660Z,77.68
2019-05-02T06:18:28.442Z,76.70
2019-05-02T06:20:56.835Z,76.67
2019-05-02T06:23:23.413Z,76.89
2019-05-02T06:25:49.924Z,76.19
2019-05-02T06:28:16.829Z,74.96
2019-05-02T06:30:43.617Z,74.98
2019-05-02T06:33:10.369Z,75.08
2019-05-02T06:35:37.948Z,74.17
2019-05-02T06:38:04.489Z,73.30
2019-05-02T06:40:30.952Z,72.92
2019-05-02T06:42:57.395Z,71.74
2019-05-02T06:45:25.082Z,71.53
2019-05-02T06:47:51.664Z,71.32
2019-05-02T06:50:18.212Z,69.76
2019-05-02T06:52:44.957Z,69.77
2019-05-02T06:55:15.786Z,68.52
2019-05-02T06:57:42.270Z,67.61
2019-05-02T07:00:10.276Z,66.49
2019-05-02T07:02:36.830Z,65.97
2019-05-02T07:05:04.742Z,64.69
2019-05-02T07:07:36.895Z,63.87
2019-05-02T07:10:00.019Z,63.06
2019-05-02T07:12:26.612Z,62.15
2019-05-02T07:14:56.128Z,62.47
2019-05-02T07:17:41.567Z,62.17
2019-05-02T07:20:08.533Z,60.98
2019-05-02T07:22:38.636Z,59.89
2019-05-02T07:25:06.873Z,58.72
2019-05-02T07:27:33.684Z,57.32
2019-05-02T07:30:01.951Z,55.93
2019-05-02T07:32:28.427Z,56.52
2019-05-02T07:34:55.148Z,56.78
2019-05-02T07:37:21.680Z,55.95
2019-05-02T07:39:48.171Z,56.40
2019-05-02T07:42:16.721Z,56.58
2019-05-02T07:44:43.339Z,57.76
2019-05-02T07:47:09.798Z,57.02
2019-05-02T07:49:36.679Z,55.46
2019-05-02T07:52:07.899Z,54.36
2019-05-02T07:54:34.703Z,54.99
2019-05-02T07:57:02.442Z,54.59
2019-05-02T07:59:29.211Z,54.33
2019-05-02T08:01:55.665Z,54.15
2019-05-02T08:04:22.430Z,53.76
2019-05-02T08:06:49.247Z,51.52
2019-05-02T08:09:15.783Z,52.87
2019-05-02T08:11:42.344Z,52.75
2019-05-02T08:14:09.429Z,50.92
2019-05-02T08:16:35.973Z,51.35
2019-05-02T08:19:05.462Z,50.21
2019-05-02T08:21:32.516Z,48.27
2019-05-02T08:24:02.264Z,47.79
2019-05-02T08:26:46.382Z,48.17
2019-05-02T08:29:13.211Z,49.03
2019-05-02T08:31:39.670Z,45.86
2019-05-02T08:34:14.731Z,45.81
2019-05-02T08:36:34.708Z,46.31
2019-05-02T08:39:01.167Z,45.86
2019-05-02T08:41:27.833Z,45.53
2019-05-02T08:43:54.666Z,46.21
2019-05-02T08:46:21.125Z,44.53
2019-05-02T08:48:50.547Z,46.16
2019-05-02T08:51:16.399Z,45.08
2019-05-02T08:53:42.877Z,45.07
2019-05-02T08:56:09.338Z,43.23
2019-05-02T08:58:35.832Z,43.67
2019-05-02T09:01:02.421Z,43.61
2019-05-02T09:03:28.967Z,45.69
2019-05-02T09:06:05.305Z,44.64
2019-05-02T09:08:24.123Z,45.21
2019-05-02T09:10:50.634Z,47.17
2019-05-02T09:13:23.513Z,45.96
2019-05-02T09:15:51.310Z,47.20
2019-05-02T09:18:16.031Z,44.90
2019-05-02T09:20:46.900Z,41.91
2019-05-02T09:23:16.672Z,42.06
2019-05-02T09:25:43.183Z,41.87
2019-05-02T09:28:09.668Z,41.01
2019-05-02T09:30:36.256Z,39.58
2019-05-02T09:33:06.571Z,40.94
2019-05-02T09:35:32.814Z,40.70
2019-05-02T09:38:01.633Z,42.00
2019-05-02T09:40:27.913Z,41.35
2019-05-02T09:42:58.536Z,39.41
2019-05-02T09:45:35.782Z,39.78
2019-05-02T09:48:04.591Z,39.43
2019-05-02T09:50:31.230Z,38.67
2019-05-02T09:52:53.967Z,39.22
2019-05-02T09:55:22.466Z,39.86
2019-05-02T09:57:49.203Z,39.57
2019-05-02T10:00:48.758Z,41.16
2019-05-02T10:03:15.953Z,39.34
2019-05-02T10:05:43.215Z,38.33
2019-05-02T10:08:13.477Z,39.19
2019-05-02T10:10:44.137Z,36.50
2019-05-02T10:13:07.631Z,35.47
2019-05-02T10:15:34.191Z,37.04
2019-05-02T10:18:08.768Z,37.20
2019-05-02T10:20:31.807Z,38.55
2019-05-02T10:22:58.462Z,40.39
2019-05-02T10:25:25.131Z,40.37
2019-05-02T10:27:52.319Z,39.48
2019-05-02T10:30:21.704Z,38.24
2019-05-02T10:32:52.916Z,37.45
2019-05-02T10:35:19.070Z,36.19
2019-05-02T10:37:45.550Z,38.11
2019-05-02T10:40:15.483Z,38.55
2019-05-02T10:42:41.926Z,39.91
2019-05-02T10:45:12.962Z,41.18
2019-05-02T10:47:38.320Z,42.83
2019-05-02T10:50:11.735Z,42.71
2019-05-02T10:52:38.358Z,42.04
2019-05-02T10:55:05.237Z,40.56
2019-05-02T10:57:32.616Z,41.68
2019-05-02T10:59:59.674Z,40.17
2019-05-02T11:02:53.302Z,40.47
2019-05-02T11:05:24.663Z,40.94
2019-05-02T11:07:49.221Z,41.04
2019-05-02T11:10:16.977Z,42.86
2019-05-02T11:12:49.994Z,42.94
2019-05-02T11:15:35.218Z,42.59
2019-05-02T11:18:02.298Z,41.62
2019-05-02T11:20:28.930Z,41.62
2019-05-02T11:22:55.704Z,41.31
2019-05-02T11:25:22.590Z,41.22
2019-05-02T11:27:49.215Z,41.68
2019-05-02T11:30:16.826Z,41.33
2019-05-02T11:32:44.773Z,41.35
2019-05-02T11:35:12.245Z,41.72
2019-05-02T11:37:39.245Z,41.72
2019-05-02T11:40:07.745Z,41.75
2019-05-02T11:42:35.228Z,41.23
2019-05-02T11:45:02.704Z,40.15
2019-05-02T11:47:29.388Z,41.16
2019-05-02T11:49:56.133Z,40.71
2019-05-02T11:52:22.815Z,40.43
2019-05-02T11:54:49.439Z,40.76
2019-05-02T11:57:16.143Z,40.83
2019-05-02T11:59:42.668Z,39.76
2019-05-02T12:02:31.904Z,39.77
2019-05-02T12:04:58.449Z,39.75
2019-05-02T12:07:25.033Z,38.97
2019-05-02T12:09:56.909Z,37.09
2019-05-02T12:12:20.135Z,37.28
2019-05-02T12:14:46.669Z,37.08
2019-05-02T12:17:13.451Z,36.78
2019-05-02T12:19:42.605Z,35.64
2019-05-02T12:22:12.944Z,34.86
2019-05-02T12:24:40.903Z,34.52
2019-05-02T12:27:06.109Z,35.34
2019-05-02T12:29:33.511Z,36.23
2019-05-02T12:32:00.123Z,32.33
2019-05-02T12:34:26.749Z,31.38
2019-05-02T12:36:53.686Z,31.46
2019-05-02T12:39:22.137Z,31.79
2019-05-02T12:41:49.236Z,31.40
2019-05-02T12:44:15.842Z,31.30
2019-05-02T12:46:42.487Z,30.98
2019-05-02T12:49:21.807Z,31.11
2019-05-02T12:51:37.325Z,31.30
2019-05-02T12:54:03.966Z,30.38
2019-05-02T12:56:32.391Z,29.57
2019-05-02T12:58:59.050Z,27.89
2019-05-02T13:01:25.626Z,27.75
2019-05-02T13:03:58.341Z,27.84
2019-05-02T13:06:25.037Z,27.02
2019-05-02T13:08:52.529Z,28.50
2019-05-02T13:11:42.231Z,30.13
2019-05-02T13:14:18.396Z,29.31
2019-05-02T13:16:36.617Z,27.57
2019-05-02T13:19:06.185Z,28.62
2019-05-02T13:21:41.790Z,28.39
2019-05-02T13:24:24.587Z,29.26
2019-05-02T13:26:59.533Z,28.77
2019-05-02T13:29:22.472Z,27.91
2019-05-02T13:32:16.973Z,29.20
2019-05-02T13:34:48.660Z,31.30
2019-05-02T13:37:16.368Z,32.58
2019-05-02T13:39:53.044Z,30.48
2019-05-02T13:42:21.853Z,30.71
2019-05-02T13:44:58.045Z,31.92
2019-05-02T13:47:25.001Z,32.18
2019-05-02T13:49:56.365Z,33.70
2019-05-02T13:52:19.951Z,33.95
2019-05-02T13:54:46.879Z,36.53
2019-05-02T13:57:13.342Z,38.29
2019-05-02T13:59:41.682Z,36.70
2019-05-02T14:02:31.649Z,37.12
2019-05-02T14:04:58.993Z,38.85
2019-05-02T14:07:25.472Z,39.27
2019-05-02T14:09:58.235Z,38.41
2019-05-02T14:12:52.876Z,38.56
2019-05-02T14:15:26.386Z,37.86
2019-05-02T14:17:53.467Z,36.83
2019-05-02T14:20:22.347Z,38.59
2019-05-02T14:22:49.323Z,37.28
2019-05-02T14:25:16.024Z,37.46
2019-05-02T14:27:46.759Z,37.04
2019-05-02T14:30:15.619Z,36.36
2019-05-02T14:32:42.576Z,37.49
2019-05-02T14:35:24.142Z,35.79
2019-05-02T14:38:07.564Z,35.84
2019-05-02T14:40:34.930Z,38.63
2019-05-02T14:43:03.374Z,38.92
2019-05-02T14:45:31.475Z,39.67
2019-05-02T14:48:15.549Z,39.83
2019-05-02T14:50:27.405Z,41.05
2019-05-02T14:52:55.832Z,40.39
2019-05-02T14:55:25.594Z,42.03
2019-05-02T14:57:52.631Z,41.05
2019-05-02T15:00:22.181Z,41.02
2019-05-02T15:02:49.535Z,39.80
2019-05-02T15:05:19.412Z,40.42
2019-05-02T15:07:45.034Z,37.59
2019-05-02T15:10:12.784Z,37.36
2019-05-02T15:12:39.588Z,35.25
2019-05-02T15:15:06.911Z,36.30
2019-05-02T15:17:37.739Z,35.43
2019-05-02T15:20:02.827Z,36.28
2019-05-02T15:22:33.161Z,35.98
2019-05-02T15:24:58.175Z,37.25
2019-05-02T15:27:24.757Z,36.08
2019-05-02T15:29:53.875Z,35.58
2019-05-02T15:32:29.137Z,36.32
2019-05-02T15:35:17.615Z,36.39
2019-05-02T15:37:42.715Z,36.13
2019-05-02T15:42:49.649Z,39.63
2019-05-02T15:45:20.388Z,41.02
2019-05-02T15:47:46.929Z,40.19
2019-05-02T15:50:21.376Z,37.91
2019-05-02T15:52:46.716Z,37.96
2019-05-02T15:55:13.301Z,38.69
2019-05-02T15:57:43.676Z,40.78
2019-05-02T16:00:17.138Z,41.11
2019-05-02T16:02:39.714Z,39.14
2019-05-02T16:05:08.877Z,39.20
2019-05-02T16:07:38.014Z,38.26
2019-05-02T16:10:04.573Z,39.02
2019-05-02T16:12:32.069Z,38.89
2019-05-02T16:14:59.529Z,42.61
2019-05-02T16:17:28.208Z,43.71
2019-05-02T16:19:58.807Z,44.72
2019-05-02T16:22:38.287Z,45.16
2019-05-02T16:25:04.093Z,44.21
2019-05-02T16:27:46.603Z,44.87
2019-05-02T16:30:15.444Z,44.87
2019-05-02T16:32:46.412Z,44.22
2019-05-02T16:35:17.352Z,44.47
2019-05-02T16:37:46.788Z,44.78
2019-05-02T16:40:12.016Z,44.62
2019-05-02T16:42:38.699Z,44.17
2019-05-02T16:45:07.377Z,44.95
2019-05-02T16:47:34.155Z,43.41
2019-05-02T16:50:02.496Z,43.01
2019-05-02T16:52:29.095Z,41.40
2019-05-02T16:54:55.860Z,40.42
2019-05-02T16:57:23.806Z,40.15
2019-05-02T16:59:55.860Z,40.45
2019-05-02T17:02:18.945Z,40.94
2019-05-02T17:04:54.242Z,41.42
2019-05-02T17:07:27.869Z,40.36
2019-05-02T17:10:02.904Z,41.21
2019-05-02T17:12:29.605Z,41.06
2019-05-02T17:15:14.834Z,40.32
2019-05-02T17:17:42.335Z,39.85
2019-05-02T17:20:12.934Z,40.53
2019-05-02T17:22:37.776Z,40.92
2019-05-02T17:25:05.975Z,41.67
2019-05-02T17:27:33.199Z,40.31
2019-05-02T17:30:01.433Z,40.45
2019-05-02T17:32:28.961Z,40.77
2019-05-02T17:34:55.428Z,41.49
2019-05-02T17:37:22.297Z,41.34
2019-05-02T17:39:48.801Z,41.31
2019-05-02T17:42:16.970Z,41.68
2019-05-02T17:44:44.012Z,41.47
2019-05-02T17:47:10.895Z,41.13
2019-05-02T17:49:37.465Z,41.31
2019-05-02T17:52:26.808Z,41.75
2019-05-02T17:54:52.867Z,41.76
2019-05-02T17:57:21.447Z,41.77
2019-05-02T17:59:47.822Z,42.37
2019-05-02T18:02:16.014Z,42.49
2019-05-02T18:04:46.561Z,42.81
2019-05-02T18:07:11.745Z,43.20
2019-05-02T18:09:38.295Z,43.61
2019-05-02T18:12:07.180Z,44.20
2019-05-02T18:14:33.506Z,45.41
2019-05-02T18:17:01.847Z,46.44
2019-05-02T18:19:32.783Z,46.81
2019-05-02T18:22:03.512Z,47.09
2019-05-02T18:24:28.460Z,47.36
2019-05-02T18:26:55.325Z,47.91
2019-05-02T18:29:22.166Z,48.47
2019-05-02T18:31:49.187Z,48.37
2019-05-02T18:34:21.009Z,48.44
2019-05-02T18:36:44.273Z,48.83
2019-05-02T18:39:13.009Z,49.63
2019-05-02T18:41:42.706Z,50.09
2019-05-02T18:44:11.820Z,49.91
2019-05-02T18:46:41.683Z,50.04
2019-05-02T18:49:08.217Z,50.30
2019-05-02T18:51:34.965Z,51.05
2019-05-02T18:54:04.352Z,51.10
2019-05-02T18:56:35.592Z,51.15
2019-05-02T18:59:02.512Z,50.99
2019-05-02T19:01:28.702Z,51.55
2019-05-02T19:03:56.334Z,51.86
2019-05-02T19:06:23.484Z,51.74
2019-05-02T19:08:52.589Z,51.86
2019-05-02T19:11:19.505Z,52.98
2019-05-02T19:13:56.781Z,55.09
2019-05-02T19:16:24.909Z,55.40
2019-05-02T19:18:55.837Z,57.95
2019-05-02T19:21:26.357Z,59.19
2019-05-02T19:23:52.972Z,58.81
2019-05-02T19:26:22.123Z,59.09
2019-05-02T19:28:57.006Z,59.41
2019-05-02T19:31:27.309Z,59.45
2019-05-02T19:33:55.513Z,60.48
2019-05-02T19:36:27.425Z,61.51
2019-05-02T19:38:56.895Z,62.61
2019-05-02T19:41:24.445Z,63.42
2019-05-02T19:43:51.479Z,63.35
2019-05-02T19:46:24.494Z,63.65
2019-05-02T19:48:48.352Z,63.78
2019-05-02T19:51:18.483Z,63.33
2019-05-02T19:53:43.833Z,62.94
2019-05-02T19:56:12.820Z,63.11
2019-05-02T19:58:42.797Z,62.91
2019-05-02T20:01:08.162Z,62.60
2019-05-02T20:03:35.736Z,63.07
2019-05-02T20:06:06.204Z,63.02
2019-05-02T20:08:32.935Z,63.08
2019-05-02T20:10:59.560Z,63.60
2019-05-02T20:13:30.609Z,64.48
2019-05-02T20:16:06.016Z,64.62
2019-05-02T20:18:34.851Z,64.40
2019-05-02T20:21:28.530Z,64.31
2019-05-02T20:23:55.065Z,63.43
2019-05-02T20:26:22.176Z,62.77
2019-05-02T20:28:48.777Z,63.70
2019-05-02T20:31:15.505Z,64.66
2019-05-02T20:33:43.013Z,65.32
2019-05-02T20:36:12.181Z,66.22
2019-05-02T20:38:38.515Z,64.83
2019-05-02T20:41:05.309Z,64.48
2019-05-02T20:43:32.276Z,64.79
2019-05-02T20:45:59.106Z,64.52
2019-05-02T20:48:25.742Z,64.53
2019-05-02T20:50:52.231Z,65.82
2019-05-02T20:53:30.708Z,65.98
2019-05-02T20:55:47.093Z,65.91
2019-05-02T20:58:13.590Z,63.93
2019-05-02T21:00:40.194Z,64.38
2019-05-02T21:03:06.680Z,65.82
2019-05-02T21:05:42.765Z,66.80
2019-05-02T21:08:47.137Z,67.52
2019-05-02T21:11:13.694Z,67.65
2019-05-02T21:13:41.853Z,68.12
2019-05-02T21:16:08.575Z,68.57
2019-05-02T21:18:35.048Z,68.85
2019-05-02T21:21:01.503Z,69.60
2019-05-02T21:23:40.644Z,69.61
2019-05-02T21:25:56.569Z,70.42
2019-05-02T21:28:23.023Z,70.45
2019-05-02T21:30:49.584Z,70.59
2019-05-02T21:33:32.155Z,70.96
2019-05-02T21:35:58.602Z,71.21
2019-05-02T21:38:25.403Z,71.50
2019-05-02T21:40:52.678Z,71.45
2019-05-02T21:43:19.130Z,71.48
2019-05-02T21:45:45.885Z,71.40
2019-05-02T21:48:12.361Z,71.17
2019-05-02T21:50:45.301Z,71.25
2019-05-02T21:53:33.681Z,70.76
2019-05-02T21:56:25.508Z,70.90
2019-05-02T21:59:04.570Z,71.55
2019-05-02T22:01:35.199Z,71.89
2019-05-02T22:04:06.904Z,72.38
2019-05-02T22:06:33.382Z,72.61
2019-05-02T22:08:59.914Z,73.04
2019-05-02T22:11:28.566Z,72.69
2019-05-02T22:13:55.148Z,72.70
2019-05-02T22:16:21.955Z,73.06
2019-05-02T22:18:48.592Z,73.38
2019-05-02T22:21:15.292Z,73.10
2019-05-02T22:23:42.593Z,73.47
2019-05-02T22:26:10.163Z,73.72
2019-05-02T22:28:36.693Z,73.62
2019-05-02T22:31:03.469Z,73.68
2019-05-02T22:33:30.063Z,74.00
2019-05-02T22:35:56.565Z,74.38
2019-05-02T22:38:39.675Z,74.56
2019-05-02T22:41:06.167Z,74.67
2019-05-02T22:43:32.817Z,75.20
2019-05-02T22:45:59.316Z,74.95
2019-05-02T22:48:25.839Z,75.10
2019-05-02T22:50:52.460Z,74.96
2019-05-02T22:53:21.482Z,74.92
2019-05-02T22:55:47.931Z,74.61
2019-05-02T22:58:14.459Z,74.29
2019-05-02T23:00:41.657Z,74.59
2019-05-02T23:03:09.464Z,74.56
2019-05-02T23:05:36.483Z,74.55
2019-05-02T23:08:03.451Z,74.40
2019-05-02T23:10:30.016Z,74.66
2019-05-02T23:12:56.801Z,74.72
2019-05-02T23:15:23.354Z,74.89
2019-05-02T23:17:52.178Z,74.97
2019-05-02T23:20:18.502Z,75.07
2019-05-02T23:22:45.019Z,75.05
2019-05-02T23:25:42.581Z,75.06
2019-05-02T23:28:13.856Z,75.46
2019-05-02T23:30:42.427Z,75.88
2019-05-02T23:33:09.588Z,75.92
2019-05-02T23:35:36.124Z,76.21
2019-05-02T23:38:02.719Z,75.76
2019-05-02T23:40:30.303Z,75.70
2019-05-02T23:42:56.813Z,75.67
2019-05-02T23:45:24.401Z,75.35
2019-05-02T23:47:52.695Z,75.41
2019-05-02T23:50:19.478Z,75.07
2019-05-02T23:52:46.055Z,74.54
2019-05-02T23:55:12.967Z,74.47
2019-05-02T23:57:41.876Z,74.69
